EW3448 Weather Reports


Display with metric or nautical units.
time (UTC)temp
F
wind
direction
speed
MPH
gust
MPH
rain 1hr
in
rain 24hr
in
rain mn
in
humidity
%
barometer
mb
20190122021525 55 300 0.0 9.0 0.00 0.02 0.00 85 1009.1
20190122020049 56 293 1.0 10.0 0.00 0.02 0.00 86 1009.3
20190122014526 56 314 3.0 9.0 0.00 0.02 0.00 86 1009.3
20190122013022 56 254 2.0 9.0 0.00 0.02 0.00 86 1009.4
20190122011508 56 248 1.0 7.0 0.00 0.02 0.00 86 1009.6
20190122010010 56 247 1.0 6.0 0.00 0.02 0.00 86 1009.5
20190122004514 56 246 1.0 7.0 0.00 0.02 0.00 86 1009.5
20190122003017 57 245 3.0 9.0 0.00 0.02 0.00 86 1009.6
20190122001509 57 239 2.0 9.0 0.00 0.02 0.00 86 1009.5
20190122000144 56 238 1.0 7.0 0.00 0.02 0.00 85 1009.6
20190121234634 56 236 0.0 6.0 0.00 0.02 0.00 85 1009.4
20190121233208 56 234 0.0 5.0 0.00 0.02 0.00 84 1009.3
20190121231641 56 237 2.0 7.0 0.00 0.02 0.00 84 1009.5
20190121230119 56 241 2.0 7.0 0.00 0.02 0.00 84 1009.6
20190121224638 56 240 2.0 8.0 0.00 0.02 0.02 83 1009.5
20190121223124 56 243 1.0 9.0 0.00 0.02 0.02 83 1009.4
20190121221617 56 239 1.0 9.0 0.00 0.02 0.02 83 1009.4
20190121220120 56 258 3.0 10.0 0.00 0.02 0.02 82 1009.4
20190121214637 56 219 3.0 11.0 0.00 0.02 0.02 82 1009.3
20190121213149 57 226 0.0 12.0 0.00 0.02 0.02 81 1009.3
20190121211625 56 206 2.0 10.0 0.00 0.02 0.02 80 1009.2
20190121210147 57 214 2.0 11.0 0.00 0.02 0.02 79 1009.2
20190121204618 57 199 5.0 11.0 0.00 0.02 0.02 78 1009.2
20190121203246 57 222 6.0 14.0 0.00 0.02 0.02 78 1009.1
20190121201620 57 196 6.0 12.0 0.00 0.02 0.02 78 1009.1
20190121200112 57 192 6.0 16.0 0.00 0.02 0.02 78 1009.3
20190121194640 57 199 6.0 15.0 0.00 0.02 0.02 79 1009.3
20190121193149 57 207 4.0 13.0 0.00 0.02 0.02 80 1009.4
20190121191621 58 191 3.0 12.0 0.00 0.02 0.02 81 1009.4
20190121190122 58 193 6.0 13.0 0.00 0.02 0.02 82 1009.6
20190121184628 58 179 4.0 10.0 0.00 0.02 0.02 82 1009.6
20190121183202 58 191 3.0 6.0 0.00 0.02 0.02 82 1009.6
20190121181544 58 189 3.0 11.0 0.00 0.02 0.02 82 1009.6
20190121180142 59 184 6.0 12.0 0.00 0.02 0.02 81 1009.7
20190121174642 59 190 4.0 11.0 0.00 0.02 0.02 82 1009.7
20190121173058 58 178 4.0 11.0 0.00 0.02 0.02 82 1009.7
20190121171607 58 180 2.0 9.0 0.00 0.02 0.02 83 1009.6
20190121170102 58 182 3.0 10.0 0.00 0.02 0.02 83 1009.5
20190121164621 58 197 3.0 9.0 0.00 0.02 0.02 83 1009.4
20190121163129 59 180 6.0 12.0 0.00 0.02 0.02 82 1009.3
20190121161653 59 186 4.0 8.0 0.00 0.02 0.02 81 1009.3
20190121160047 59 185 4.0 11.0 0.00 0.02 0.02 80 1009.3
20190121154559 60 173 5.0 11.0 0.00 0.02 0.02 79 1009.4
20190121153057 60 200 6.0 13.0 0.00 0.02 0.02 79 1009.4
20190121151606 60 181 5.0 12.0 0.00 0.02 0.02 78 1009.6
20190121150105 60 205 8.0 14.0 0.00 0.02 0.02 78 1009.6
20190121144743 60 193 6.0 12.0 0.00 0.02 0.02 77 1009.6
20190121143033 60 179 4.0 15.0 0.00 0.02 0.02 76 1009.7
20190121141546 60 177 6.0 15.0 0.00 0.02 0.02 75 1009.8
20190121140029 60 190 4.0 15.0 0.00 0.02 0.02 77 1010.0
20190121134545 60 172 6.0 16.0 0.00 0.02 0.02 77 1009.9
20190121133036 61 180 4.0 16.0 0.00 0.02 0.02 76 1010.0
20190121131533 61 169 6.0 18.0 0.00 0.02 0.02 77 1010.0
20190121130054 61 181 5.0 17.0 0.00 0.02 0.02 77 1010.0
20190121124608 61 169 5.0 18.0 0.00 0.02 0.02 77 1010.1
20190121123017 60 178 6.0 12.0 0.00 0.02 0.02 79 1010.3
20190121121512 59 198 6.0 14.0 0.00 0.02 0.02 80 1010.6
20190121120010 58 180 3.0 15.0 0.00 0.02 0.02 81 1010.7
20190121114509 58 203 5.0 15.0 0.00 0.02 0.02 81 1011.0
20190121113202 58 195 7.0 18.0 0.00 0.02 0.02 81 1011.1
20190121111709 59 186 5.0 14.0 0.00 0.02 0.02 80 1011.1
20190121110146 60 186 8.0 12.0 0.00 0.02 0.02 79 1011.3
20190121104612 60 171 6.0 15.0 0.00 0.02 0.02 78 1011.5
20190121103216 60 186 4.0 11.0 0.00 0.02 0.02 77 1011.8
20190121101633 60 205 7.0 18.0 0.00 0.02 0.02 77 1012.0
20190121100115 60 173 8.0 15.0 0.00 0.02 0.02 78 1012.2
20190121094713 59 179 7.0 14.0 0.00 0.02 0.02 78 1012.3
20190121093110 58 203 6.0 17.0 0.01 0.02 0.02 79 1012.5
20190121091618 59 179 7.0 17.0 0.02 0.02 0.02 82 1012.4
20190121090109 56 185 2.0 6.0 0.02 0.02 0.02 79 1012.5
20190121084640 56 185 1.0 6.0 0.02 0.02 0.02 78 1012.5
20190121083131 56 192 7.0 19.0 0.02 0.02 0.02 77 1012.5
20190121081607 58 184 7.0 15.0 0.00 0.00 0.00 81 1012.4
20190121080157 58 184 7.0 14.0 0.00 0.00 0.00 83 1012.3
20190121074626 58 169 6.0 10.0 0.00 0.01 0.00 82 1012.3
20190121073140 58 172 4.0 11.0 0.00 0.01 0.00 81 1012.4
20190121071620 58 172 5.0 10.0 0.00 0.01 0.00 80 1012.5
20190121070159 57 174 6.0 13.0 0.00 0.01 0.00 79 1012.5
20190121064641 57 175 4.0 9.0 0.00 0.10 0.00 79 1012.5
20190121063053 57 184 4.0 11.0 0.00 0.10 0.00 78 1012.6
20190121061532 56 189 4.0 12.0 0.00 0.10 0.00 78 1012.6
20190121060044 56 193 3.0 8.0 0.00 0.10 0.00 77 1012.6
20190121054608 56 195 5.0 11.0 0.00 0.11 0.00 76 1012.6
20190121053016 56 200 2.0 8.0 0.00 0.11 0.00 75 1012.6
20190121051540 55 203 2.0 7.0 0.00 0.11 0.00 74 1012.6
20190121050021 55 204 3.0 7.0 0.00 0.20 0.00 74 1012.4
20190121044512 55 205 0.0 8.0 0.00 0.20 0.00 75 1012.4
20190121043009 55 205 0.0 6.0 0.00 0.20 0.00 76 1012.4
20190121041520 55 205 1.0 9.0 0.00 0.20 0.00 78 1012.5
20190121040021 55 203 2.0 8.0 0.00 0.20 0.00 79 1012.5
20190121034509 55 203 1.0 11.0 0.00 0.20 0.00 81 1012.4
20190121033002 55 199 3.0 7.0 0.00 0.20 0.00 82 1012.5
20190121031658 55 201 3.0 9.0 0.00 0.20 0.00 83 1012.7
20190121030202 55 203 3.0 12.0 0.00 0.20 0.00 83 1012.8
20190121024732 55 211 4.0 10.0 0.00 0.20 0.00 82 1013.0
20190121023210 55 223 1.0 9.0 0.00 0.20 0.00 83 1013.2